Laguna de Pozuelos, Argentina
Current Conditions -  °F | °C
As of 12:00 PM on Thursday 23 Oct 2014 (Local Time) from SLTJ Reporting Station
Scattered Clouds Scattered Clouds  
Wind Chill: 77°   Ceiling: Unl
Heat Index: 79°   Visibility: 6mi
Dew Point: 59°   Wind: 12mph
Humidity: 54%   Direction: 130°SE
Pressure: 30.15"   Gusts: NA
Location:  22.37°S, 66.02°W
Report Text: SLTJ 231500Z 13010KT 9999 SCT027 25/15 Q1021
Loading
Personal Weather Stations






























Interactive Weather Map
Tropical Storm Tracking
New forecast layout! Learn more

10-Day Weather Forecast

Advertisements
Track Severe Weather on mobile